DW6099 Weather Reports


Display with metric or nautical units.
time (UTC)temp
F
wind
direction
speed
MPH
gust
MPH
rain 1hr
in
rain 24hr
in
rain mn
in
humidity
%
barometer
mb
20200225093116 34 200 0.0 0.0 0.00 0.01 0.00 88 1014.2
20200225091642 33 168 0.0 0.0 0.00 0.01 0.00 87 1014.2
20200225090247 34 168 0.0 0.0 0.00 0.01 0.00 88 1014.2
20200225084603 34 168 0.0 0.0 0.00 0.01 0.00 87 1014.2
20200225083123 34 150 0.0 0.0 0.00 0.01 0.00 88 1014.2
20200225081604 33 150 0.0 0.0 0.00 0.01 0.00 87 1014.2
20200225080103 34 123 0.0 0.0 0.00 0.01 0.00 86 1014.2
20200225074606 34 123 0.0 0.0 0.00 0.01 0.01 86 1014.2
20200225073035 35 360 0.0 0.0 0.00 0.01 0.01 86 1014.2
20200225071603 35 360 0.0 0.0 0.00 0.01 0.01 85 1014.2
20200225070101 36 360 0.0 0.0 0.00 0.01 0.01 85 1014.2
20200225064548 36 360 0.0 0.0 0.00 0.01 0.01 83 1014.2
20200225063124 37 360 0.0 0.0 0.00 0.01 0.01 84 1014.2
20200225061540 37 360 0.0 0.0 0.00 0.01 0.01 85 1014.2
20200225060058 36 360 0.0 0.0 0.00 0.01 0.01 83 1014.2
20200225054534 37 360 0.0 0.0 0.00 0.01 0.01 83 1014.2
20200225053057 37 360 0.0 0.0 0.00 0.01 0.01 82 1014.2
20200225051606 38 360 0.0 0.0 0.00 0.01 0.01 82 1014.2
20200225050030 38 360 0.0 0.0 0.00 0.01 0.01 82 1014.2
20200225044606 39 360 0.0 0.0 0.00 0.01 0.01 81 1014.2
20200225043058 39 360 0.0 0.0 0.00 0.01 0.01 79 1014.2
20200225041559 40 360 0.0 0.0 0.00 0.01 0.01 79 1014.2
20200225040105 41 360 0.0 0.0 0.00 0.01 0.01 76 1014.2
20200225034640 42 360 0.0 0.0 0.00 0.01 0.01 75 1014.2
20200225033120 42 360 0.0 0.0 0.00 0.01 0.01 74 1014.2
20200225031529 44 360 0.0 0.0 0.00 0.01 0.01 73 1014.2
20200225030048 44 360 0.0 0.0 0.00 0.01 0.01 72 1014.2
20200225024608 44 360 0.0 5.0 0.00 0.01 0.01 71 1014.2
20200225023033 46 26 0.0 0.0 0.00 0.01 0.01 70 1014.2
20200225021555 46 26 0.0 0.0 0.00 0.01 0.01 67 1014.2
20200225020106 48 26 0.0 0.0 0.00 0.01 0.01 61 1014.2
20200225014554 52 26 0.0 0.0 0.00 0.01 0.01 55 1014.2
20200225013107 55 30 0.0 0.0 0.00 0.01 0.01 51 1014.2
20200225011541 55 30 0.0 0.0 0.00 0.01 0.01 52 1014.2
20200225010046 55 30 0.0 0.0 0.00 0.01 0.01 52 1014.2
20200225004538 58 30 1.0 4.0 0.00 0.01 0.01 48 1014.2
20200225003117 58 44 0.0 2.0 0.00 0.01 0.01 48 1014.2
20200225001541 55 146 0.0 0.0 0.00 0.01 0.01 52 1014.2
20200225000027 53 15 1.0 3.0 0.00 0.01 0.01 52 1014.2
20200224234515 54 161 0.0 3.0 0.00 0.02 0.01 48 1014.2
20200224233032 54 94 0.0 6.0 0.00 0.02 0.01 52 1014.2
20200224231517 54 88 0.0 6.0 0.00 0.02 0.01 52 1014.2
20200224230100 52 148 1.0 7.0 0.00 0.02 0.01 55 1014.2
20200224224607 51 198 0.0 4.0 0.00 0.02 0.01 56 1014.2
20200224223014 51 190 0.0 4.0 0.00 0.02 0.01 56 1014.2
20200224221511 52 144 0.0 3.0 0.00 0.02 0.01 53 1014.2
20200224220041 53 169 1.0 6.0 0.00 0.02 0.01 52 1014.2
20200224214618 53 257 2.0 7.0 0.00 0.04 0.01 52 1014.2
20200224213008 54 198 3.0 7.0 0.00 0.04 0.01 53 1014.2
20200224211504 53 153 3.0 7.0 0.00 0.04 0.01 57 1014.2
20200224210133 51 152 2.0 8.0 0.00 0.04 0.01 61 1014.2
20200224204650 50 202 3.0 7.0 0.00 0.04 0.01 62 1014.2
20200224203105 49 200 0.0 4.0 0.00 0.04 0.01 67 1014.2
20200224201620 48 208 1.0 4.0 0.00 0.04 0.01 71 1014.2
20200224200110 47 147 1.0 5.0 0.00 0.04 0.01 74 1014.2
20200224194719 47 174 0.0 5.0 0.00 0.04 0.01 76 1014.2
20200224193144 47 196 0.0 6.0 0.00 0.04 0.01 76 1014.2
20200224191623 46 186 1.0 5.0 0.00 0.04 0.01 77 1014.2
20200224190057 46 150 2.0 6.0 0.00 0.04 0.01 77 1014.2
20200224184610 46 172 0.0 7.0 0.00 0.04 0.01 79 1014.2
20200224183135 46 161 4.0 9.0 0.00 0.04 0.01 80 1014.2
20200224181625 45 142 0.0 5.0 0.00 0.04 0.01 82 1014.2
20200224180042 43 158 0.0 5.0 0.00 0.04 0.01 87 1014.2
20200224174537 42 169 0.0 0.0 0.00 0.04 0.01 88 1014.2
20200224173055 42 160 0.0 0.0 0.00 0.04 0.01 89 1014.2
20200224171633 41 160 0.0 0.0 0.00 0.04 0.01 89 1014.2
20200224170043 40 160 0.0 0.0 0.00 0.04 0.01 89 1014.2
20200224164535 39 188 0.0 0.0 0.00 0.07 0.01 89 1014.2
20200224163101 38 224 0.0 0.0 0.00 0.07 0.01 89 1014.2
20200224161523 37 224 0.0 0.0 0.00 0.07 0.01 89 1014.2
20200224160046 36 224 0.0 0.0 0.00 0.07 0.01 89 1014.2
20200224154535 36 224 0.0 0.0 0.00 0.08 0.01 89 1014.2
20200224153030 35 225 0.0 0.0 0.00 0.08 0.01 89 1014.2
20200224151523 34 225 0.0 0.0 0.00 0.08 0.01 89 1014.2
20200224150027 34 225 0.0 0.0 0.00 0.08 0.01 89 1014.2
20200224144519 34 225 0.0 0.0 0.00 0.08 0.01 89 1014.2
20200224143028 34 134 0.0 0.0 0.00 0.08 0.01 89 1014.2
20200224141517 34 134 0.0 0.0 0.00 0.08 0.01 88 1014.2
20200224140046 35 134 0.0 0.0 0.00 0.08 0.01 89 1014.2
20200224134525 35 134 0.0 0.0 0.00 0.08 0.01 89 1014.2
20200224133027 35 134 0.0 0.0 0.00 0.08 0.01 88 1014.2
20200224131508 36 134 0.0 0.0 0.00 0.08 0.01 88 1014.2
20200224130032 36 134 0.0 0.0 0.01 0.08 0.01 88 1014.2
20200224124536 37 134 0.0 0.0 0.01 0.08 0.01 88 1014.2
20200224123006 37 134 0.0 0.0 0.01 0.08 0.01 87 1014.2
20200224121502 38 134 0.0 0.0 0.01 0.08 0.01 88 1014.2
20200224120127 39 134 0.0 0.0 0.00 0.07 0.00 88 1014.2
20200224114628 39 134 0.0 0.0 0.00 0.08 0.00 88 1014.2
20200224113117 39 134 0.0 0.0 0.00 0.08 0.00 88 1014.2
20200224111737 40 18 0.0 0.0 0.00 0.08 0.00 88 1014.2
20200224110210 40 18 0.0 0.0 0.00 0.08 0.00 87 1014.2
20200224104637 40 18 0.0 0.0 0.00 0.10 0.00 87 1014.2
20200224103145 40 18 0.0 0.0 0.00 0.10 0.00 88 1014.2
20200224101612 40 18 0.0 0.0 0.00 0.10 0.00 88 1014.2
20200224100205 40 18 0.0 0.0 0.00 0.10 0.00 88 1014.2
20200224094700 40 18 0.0 0.0 0.00 0.10 0.00 88 1014.2